createdAt,value
2018-08-22T00:00:52.060Z,20.90
2018-08-22T00:03:19.418Z,20.90
2018-08-22T00:05:46.787Z,20.90
2018-08-22T00:08:14.107Z,20.90
2018-08-22T00:10:41.584Z,20.90
2018-08-22T00:13:08.911Z,20.90
2018-08-22T00:15:36.423Z,20.90
2018-08-22T00:18:04.175Z,20.80
2018-08-22T00:20:31.531Z,20.70
2018-08-22T00:22:58.987Z,20.70
2018-08-22T00:25:26.686Z,20.70
2018-08-22T00:27:53.959Z,20.60
2018-08-22T00:30:21.320Z,20.70
2018-08-22T00:32:48.771Z,20.60
2018-08-22T00:35:16.200Z,20.60
2018-08-22T00:37:43.524Z,20.60
2018-08-22T00:40:10.907Z,20.60
2018-08-22T00:42:38.347Z,20.50
2018-08-22T00:45:05.682Z,20.50
2018-08-22T00:47:33.068Z,20.50
2018-08-22T00:50:00.471Z,20.50
2018-08-22T00:52:27.826Z,20.40
2018-08-22T00:54:57.893Z,20.40
2018-08-22T00:57:25.251Z,20.40
2018-08-22T00:59:52.599Z,20.40
2018-08-22T01:02:19.939Z,20.30
2018-08-22T01:04:47.408Z,20.30
2018-08-22T01:07:14.766Z,20.30
2018-08-22T01:09:42.128Z,20.30
2018-08-22T01:12:09.461Z,20.30
2018-08-22T01:14:36.963Z,20.30
2018-08-22T01:17:04.565Z,20.30
2018-08-22T01:19:31.940Z,20.30
2018-08-22T01:21:59.996Z,20.30
2018-08-22T01:24:27.365Z,20.30
2018-08-22T01:26:54.792Z,20.30
2018-08-22T01:29:22.191Z,20.30
2018-08-22T01:31:49.514Z,20.30
2018-08-22T01:34:16.838Z,20.30
2018-08-22T01:36:44.195Z,20.40
2018-08-22T01:39:11.614Z,20.30
2018-08-22T01:41:39.089Z,20.40
2018-08-22T01:44:07.560Z,20.30
2018-08-22T01:46:35.987Z,20.30
2018-08-22T01:49:04.723Z,20.40
2018-08-22T01:51:32.059Z,20.30
2018-08-22T01:53:59.430Z,20.30
2018-08-22T01:56:26.783Z,20.30
2018-08-22T01:58:54.214Z,20.30
2018-08-22T02:01:21.593Z,20.30
2018-08-22T02:03:48.982Z,20.30
2018-08-22T02:06:16.411Z,20.30
2018-08-22T02:08:43.791Z,20.30
2018-08-22T02:11:11.268Z,20.30
2018-08-22T02:13:38.615Z,20.20
2018-08-22T02:16:08.487Z,20.20
2018-08-22T02:18:35.955Z,20.20
2018-08-22T02:21:03.371Z,20.10
2018-08-22T02:23:30.833Z,20.10
2018-08-22T02:25:58.200Z,20.10
2018-08-22T02:28:25.511Z,20.00
2018-08-22T02:30:52.955Z,20.00
2018-08-22T02:33:20.312Z,20.00
2018-08-22T02:35:47.709Z,20.00
2018-08-22T02:38:20.783Z,20.00
2018-08-22T02:40:48.143Z,20.00
2018-08-22T02:43:15.535Z,20.00
2018-08-22T02:45:45.715Z,20.00
2018-08-22T02:48:13.067Z,20.00
2018-08-22T02:50:40.591Z,20.00
2018-08-22T02:53:07.947Z,19.90
2018-08-22T02:55:35.297Z,19.90
2018-08-22T02:58:02.700Z,19.90
2018-08-22T03:00:30.044Z,19.90
2018-08-22T03:02:57.405Z,19.80
2018-08-22T03:05:24.747Z,19.80
2018-08-22T03:07:52.163Z,19.80
2018-08-22T03:10:19.491Z,19.80
2018-08-22T03:12:46.833Z,19.80
2018-08-22T03:15:14.208Z,19.70
2018-08-22T03:17:41.687Z,19.70
2018-08-22T03:20:09.030Z,19.70
2018-08-22T03:22:36.443Z,19.70
2018-08-22T03:25:03.827Z,19.70
2018-08-22T03:27:31.240Z,19.60
2018-08-22T03:29:58.605Z,19.60
2018-08-22T03:32:25.963Z,19.60
2018-08-22T03:34:53.287Z,19.60
2018-08-22T03:37:20.697Z,19.60
2018-08-22T03:39:48.079Z,19.60
2018-08-22T03:42:15.415Z,19.60
2018-08-22T03:44:42.748Z,19.60
2018-08-22T03:47:10.102Z,19.60
2018-08-22T03:49:37.455Z,19.60
2018-08-22T03:52:04.779Z,19.70
2018-08-22T03:54:32.157Z,19.70
2018-08-22T03:56:59.489Z,19.70
2018-08-22T03:59:26.963Z,19.70
2018-08-22T04:01:55.767Z,19.80
2018-08-22T04:04:23.133Z,19.80
2018-08-22T04:06:50.475Z,19.80
2018-08-22T04:09:17.811Z,19.80
2018-08-22T04:11:46.388Z,19.90
2018-08-22T04:14:13.739Z,20.00
2018-08-22T04:16:41.544Z,20.00
2018-08-22T04:19:08.900Z,20.00
2018-08-22T04:21:36.303Z,20.10
2018-08-22T04:24:04.103Z,20.10
2018-08-22T04:26:31.504Z,20.00
2018-08-22T04:28:58.903Z,20.10
2018-08-22T04:31:26.297Z,20.10
2018-08-22T04:33:53.755Z,20.20
2018-08-22T04:36:21.143Z,20.20
2018-08-22T04:38:50.151Z,20.20
2018-08-22T04:41:17.563Z,20.20
2018-08-22T04:43:45.016Z,20.20
2018-08-22T04:46:12.420Z,20.30
2018-08-22T04:48:39.950Z,20.30
2018-08-22T04:51:07.404Z,20.30
2018-08-22T04:53:34.811Z,20.30
2018-08-22T04:56:02.504Z,20.30
2018-08-22T04:58:29.919Z,20.30
2018-08-22T05:00:57.488Z,20.30
2018-08-22T05:03:24.959Z,20.40
2018-08-22T05:05:53.327Z,20.40
2018-08-22T05:08:20.676Z,20.40
2018-08-22T05:10:49.698Z,20.30
2018-08-22T05:13:17.158Z,20.40
2018-08-22T05:15:44.536Z,20.40
2018-08-22T05:18:11.921Z,20.40
2018-08-22T05:20:39.357Z,20.50
2018-08-22T05:23:06.835Z,20.50
2018-08-22T05:25:34.200Z,20.50
2018-08-22T05:28:01.590Z,20.50
2018-08-22T05:30:28.935Z,20.50
2018-08-22T05:32:56.311Z,20.50
2018-08-22T05:35:23.697Z,20.60
2018-08-22T05:37:51.005Z,20.50
2018-08-22T05:40:18.362Z,20.60
2018-08-22T05:42:45.683Z,20.60
2018-08-22T05:45:13.619Z,20.60
2018-08-22T05:47:40.968Z,20.60
2018-08-22T05:50:08.400Z,20.60
2018-08-22T05:52:35.788Z,20.70
2018-08-22T05:55:03.255Z,20.70
2018-08-22T05:57:30.671Z,20.80
2018-08-22T05:59:58.034Z,20.90
2018-08-22T06:02:25.400Z,21.10
2018-08-22T06:04:52.744Z,21.40
2018-08-22T06:07:20.075Z,21.90
2018-08-22T06:09:47.431Z,22.30
2018-08-22T06:12:14.731Z,22.80
2018-08-22T06:14:42.152Z,23.20
2018-08-22T06:17:09.479Z,23.50
2018-08-22T06:19:36.816Z,23.70
2018-08-22T06:22:04.263Z,23.70
2018-08-22T06:24:32.580Z,23.60
2018-08-22T06:27:00.016Z,23.50
2018-08-22T06:29:27.416Z,23.40
2018-08-22T06:31:54.751Z,23.30
2018-08-22T06:34:22.154Z,23.30
2018-08-22T06:36:49.483Z,23.40
2018-08-22T06:39:16.845Z,23.60
2018-08-22T06:41:46.475Z,23.80
2018-08-22T06:44:13.837Z,23.90
2018-08-22T06:46:41.167Z,23.90
2018-08-22T06:49:08.537Z,23.80
2018-08-22T06:51:35.923Z,23.90
2018-08-22T06:54:03.318Z,23.80
2018-08-22T06:56:30.671Z,24.00
2018-08-22T06:58:58.123Z,23.90
2018-08-22T07:01:25.916Z,23.90
2018-08-22T07:03:53.248Z,24.10
2018-08-22T07:06:20.596Z,24.20
2018-08-22T07:08:47.912Z,24.40
2018-08-22T07:11:15.270Z,24.60
2018-08-22T07:13:42.584Z,24.40
2018-08-22T07:16:10.231Z,24.40
2018-08-22T07:18:37.559Z,24.40
2018-08-22T07:21:04.915Z,24.60
2018-08-22T07:23:32.272Z,24.60
2018-08-22T07:26:00.467Z,24.80
2018-08-22T07:28:27.872Z,24.90
2018-08-22T07:30:55.367Z,25.20
2018-08-22T07:33:22.757Z,25.20
2018-08-22T07:35:50.259Z,24.90
2018-08-22T07:38:17.596Z,25.10
2018-08-22T07:40:45.012Z,25.30
2018-08-22T07:43:12.712Z,25.30
2018-08-22T07:45:40.298Z,25.50
2018-08-22T07:48:09.975Z,25.70
2018-08-22T07:50:37.379Z,25.70
2018-08-22T07:53:05.287Z,25.90
2018-08-22T07:55:35.632Z,26.10
2018-08-22T07:58:05.108Z,26.30
2018-08-22T08:00:32.472Z,26.30
2018-08-22T08:03:00.172Z,26.30
2018-08-22T08:05:28.476Z,26.00
2018-08-22T08:07:55.848Z,25.90
2018-08-22T08:10:32.563Z,25.80
2018-08-22T08:13:00.272Z,25.90
2018-08-22T08:15:27.683Z,26.20
2018-08-22T08:17:55.329Z,26.50
2018-08-22T08:20:23.208Z,26.60
2018-08-22T08:22:54.725Z,26.80
2018-08-22T08:25:22.152Z,26.80
2018-08-22T08:27:49.647Z,26.90
2018-08-22T08:30:17.067Z,27.30
2018-08-22T08:32:44.647Z,27.50
2018-08-22T08:35:12.076Z,27.50
2018-08-22T08:37:39.507Z,27.70
2018-08-22T08:40:06.954Z,27.90
2018-08-22T08:42:34.337Z,28.10
2018-08-22T08:45:01.777Z,28.30
2018-08-22T08:47:29.171Z,28.40
2018-08-22T08:49:56.557Z,28.50
2018-08-22T08:52:23.939Z,28.60
2018-08-22T08:54:56.235Z,28.80
2018-08-22T08:57:23.738Z,28.90
2018-08-22T08:59:51.918Z,28.90
2018-08-22T09:02:19.395Z,29.00
2018-08-22T09:04:46.863Z,28.90
2018-08-22T09:07:18.602Z,28.60
2018-08-22T09:09:45.984Z,28.50
2018-08-22T09:12:13.443Z,28.60
2018-08-22T09:14:40.956Z,28.60
2018-08-22T09:17:08.466Z,28.40
2018-08-22T09:19:35.848Z,28.70
2018-08-22T09:22:04.742Z,28.80
2018-08-22T09:24:32.257Z,29.00
2018-08-22T09:26:59.745Z,29.20
2018-08-22T09:29:27.144Z,29.30
2018-08-22T09:31:54.535Z,29.40
2018-08-22T09:34:21.958Z,29.60
2018-08-22T09:36:53.605Z,29.80
2018-08-22T09:39:21.077Z,30.00
2018-08-22T09:41:48.457Z,30.20
2018-08-22T09:44:15.863Z,30.40
2018-08-22T09:46:43.328Z,30.70
2018-08-22T09:49:10.692Z,30.80
2018-08-22T09:51:39.452Z,30.80
2018-08-22T09:54:06.879Z,31.00
2018-08-22T09:56:34.276Z,31.20
2018-08-22T09:59:01.637Z,31.40
2018-08-22T10:01:36.886Z,31.70
2018-08-22T10:04:06.688Z,31.80
2018-08-22T10:06:37.308Z,32.00
2018-08-22T10:09:08.496Z,31.70
2018-08-22T10:11:35.967Z,31.20
2018-08-22T10:14:07.040Z,31.60
2018-08-22T10:16:34.468Z,31.80
2018-08-22T10:19:01.953Z,32.00
2018-08-22T10:21:29.324Z,32.10
2018-08-22T10:23:56.756Z,32.20
2018-08-22T10:26:24.299Z,32.50
2018-08-22T10:28:55.040Z,32.70
2018-08-22T10:31:23.213Z,32.90
2018-08-22T10:33:50.609Z,33.10
2018-08-22T10:36:17.924Z,33.10
2018-08-22T10:38:45.290Z,33.20
2018-08-22T10:41:14.891Z,33.30
2018-08-22T10:43:43.754Z,33.10
2018-08-22T10:46:11.067Z,33.10
2018-08-22T10:48:38.432Z,33.30
2018-08-22T10:51:06.348Z,33.70
2018-08-22T10:53:33.765Z,33.80
2018-08-22T10:56:03.328Z,33.90
2018-08-22T10:58:31.019Z,34.00
2018-08-22T11:00:58.445Z,34.00
2018-08-22T11:03:25.907Z,33.80
2018-08-22T11:05:53.296Z,33.70
2018-08-22T11:08:23.509Z,33.40
2018-08-22T11:10:52.684Z,33.30
2018-08-22T11:13:20.069Z,33.50
2018-08-22T11:15:47.608Z,33.70
2018-08-22T11:18:15.001Z,33.90
2018-08-22T11:20:43.435Z,34.00
2018-08-22T11:23:22.981Z,33.90
2018-08-22T11:26:02.077Z,34.00
2018-08-22T11:28:42.327Z,33.90
2018-08-22T11:31:21.327Z,34.00
2018-08-22T11:34:00.896Z,33.80
2018-08-22T11:36:27.390Z,33.30
2018-08-22T11:38:54.945Z,33.20
2018-08-22T11:41:22.316Z,33.50
2018-08-22T11:43:49.695Z,33.70
2018-08-22T11:46:20.906Z,34.10
2018-08-22T11:48:48.320Z,34.30
2018-08-22T11:51:15.903Z,34.40
2018-08-22T11:53:43.907Z,34.40
2018-08-22T11:56:11.348Z,34.10
2018-08-22T11:58:38.736Z,34.10
2018-08-22T12:01:06.125Z,34.10
2018-08-22T12:03:38.490Z,34.20
2018-08-22T12:06:05.919Z,34.10
2018-08-22T12:08:33.357Z,34.50
2018-08-22T12:11:00.740Z,34.40
2018-08-22T12:13:28.203Z,34.20
2018-08-22T12:15:55.871Z,34.20
2018-08-22T12:18:24.628Z,34.20
2018-08-22T12:20:52.063Z,34.10
2018-08-22T12:23:19.518Z,34.30
2018-08-22T12:25:47.203Z,34.40
2018-08-22T12:28:14.552Z,34.70
2018-08-22T12:30:41.961Z,34.80
2018-08-22T12:33:14.484Z,34.70
2018-08-22T12:35:41.811Z,34.80
2018-08-22T12:38:09.159Z,34.80
2018-08-22T12:40:36.525Z,34.80
2018-08-22T12:43:04.104Z,35.00
2018-08-22T12:45:31.418Z,35.00
2018-08-22T12:48:03.915Z,34.80
2018-08-22T12:50:31.269Z,34.90
2018-08-22T12:52:58.623Z,34.80
2018-08-22T12:55:26.041Z,34.70
2018-08-22T12:57:53.396Z,34.70
2018-08-22T13:00:23.135Z,34.80
2018-08-22T13:02:52.348Z,34.90
2018-08-22T13:05:19.724Z,35.10
2018-08-22T13:07:47.144Z,34.90
2018-08-22T13:10:15.359Z,34.90
2018-08-22T13:12:42.717Z,35.00
2018-08-22T13:15:14.576Z,34.80
2018-08-22T13:17:41.957Z,34.50
2018-08-22T13:20:09.380Z,34.60
2018-08-22T13:22:36.708Z,34.90
2018-08-22T13:25:04.143Z,34.80
2018-08-22T13:27:31.568Z,34.80
2018-08-22T13:30:01.125Z,35.00
2018-08-22T13:32:29.155Z,34.90
2018-08-22T13:34:56.577Z,34.80
2018-08-22T13:37:24.075Z,34.70
2018-08-22T13:39:51.604Z,34.50
2018-08-22T13:42:19.092Z,34.40
2018-08-22T13:44:46.535Z,34.40
2018-08-22T13:47:14.015Z,34.50
2018-08-22T13:49:41.419Z,34.50
2018-08-22T13:52:08.965Z,34.60
2018-08-22T13:54:36.376Z,34.50
2018-08-22T13:57:07.029Z,34.60
2018-08-22T13:59:34.403Z,34.60
2018-08-22T14:02:01.857Z,34.60
2018-08-22T14:04:29.338Z,34.30
2018-08-22T14:06:56.780Z,34.40
2018-08-22T14:09:24.199Z,34.50
2018-08-22T14:11:51.579Z,34.60
2018-08-22T14:14:23.819Z,34.50
2018-08-22T14:16:51.270Z,34.20
2018-08-22T14:19:18.695Z,33.90
2018-08-22T14:21:46.136Z,34.00
2018-08-22T14:24:13.587Z,34.10
2018-08-22T14:26:45.718Z,34.10
2018-08-22T14:29:13.108Z,34.20
2018-08-22T14:31:40.742Z,34.30
2018-08-22T14:34:08.064Z,34.10
2018-08-22T14:36:35.437Z,33.70
2018-08-22T14:39:04.687Z,33.80
2018-08-22T14:41:32.065Z,33.80
2018-08-22T14:44:00.756Z,33.90
2018-08-22T14:46:28.180Z,33.90
2018-08-22T14:48:55.855Z,33.80
2018-08-22T14:51:23.233Z,33.70
2018-08-22T14:53:50.697Z,33.60
2018-08-22T14:56:18.180Z,33.70
2018-08-22T14:58:45.427Z,33.80
2018-08-22T15:01:12.808Z,33.80
2018-08-22T15:03:40.251Z,33.70
2018-08-22T15:06:07.715Z,33.60
2018-08-22T15:08:35.096Z,33.60
2018-08-22T15:11:02.720Z,33.30
2018-08-22T15:13:30.153Z,33.20
2018-08-22T15:15:57.712Z,33.30
2018-08-22T15:18:25.081Z,33.00
2018-08-22T15:20:52.621Z,33.00
2018-08-22T15:23:20.275Z,33.00
2018-08-22T15:25:47.611Z,33.00
2018-08-22T15:28:15.024Z,33.00
2018-08-22T15:30:42.630Z,33.10
2018-08-22T15:33:09.984Z,33.10
2018-08-22T15:35:40.267Z,33.10
2018-08-22T15:38:07.644Z,33.00
2018-08-22T15:40:35.117Z,32.80
2018-08-22T15:43:02.464Z,32.70
2018-08-22T15:45:29.821Z,32.60
2018-08-22T15:47:57.156Z,32.60
2018-08-22T15:50:24.515Z,32.50
2018-08-22T15:52:51.977Z,32.40
2018-08-22T15:55:19.364Z,32.20
2018-08-22T15:57:57.508Z,31.80
2018-08-22T16:00:47.243Z,31.60
2018-08-22T16:03:14.610Z,31.50
2018-08-22T16:05:42.895Z,31.30
2018-08-22T16:08:10.799Z,31.30
2018-08-22T16:10:39.229Z,31.30
2018-08-22T16:13:14.594Z,31.10
2018-08-22T16:15:41.960Z,31.10
2018-08-22T16:18:09.411Z,30.90
2018-08-22T16:20:48.051Z,30.90
2018-08-22T16:23:15.424Z,31.00
2018-08-22T16:25:46.086Z,31.00
2018-08-22T16:28:13.493Z,31.00
2018-08-22T16:30:40.865Z,30.90
2018-08-22T16:33:13.128Z,30.90
2018-08-22T16:35:40.531Z,31.00
2018-08-22T16:38:12.824Z,31.00
2018-08-22T16:40:41.499Z,31.00
2018-08-22T16:43:08.976Z,30.90
2018-08-22T16:45:43.157Z,30.90
2018-08-22T16:48:11.488Z,30.70
2018-08-22T16:50:38.844Z,30.70
2018-08-22T16:53:06.243Z,30.70
2018-08-22T16:55:33.584Z,30.80
2018-08-22T16:58:01.036Z,30.50
2018-08-22T17:00:37.139Z,30.50
2018-08-22T17:03:05.825Z,30.40
2018-08-22T17:05:33.496Z,30.40
2018-08-22T17:08:00.921Z,30.40
2018-08-22T17:10:35.483Z,30.30
2018-08-22T17:13:04.251Z,30.20
2018-08-22T17:15:31.589Z,30.00
2018-08-22T17:17:58.964Z,30.00
2018-08-22T17:20:26.292Z,29.90
2018-08-22T17:22:53.633Z,29.90
2018-08-22T17:25:21.119Z,29.90
2018-08-22T17:27:48.527Z,29.80
2018-08-22T17:30:18.315Z,29.80
2018-08-22T17:32:45.870Z,29.70
2018-08-22T17:35:14.779Z,29.70
2018-08-22T17:37:57.645Z,29.60
2018-08-22T17:40:25.193Z,29.60
2018-08-22T17:42:52.744Z,29.50
2018-08-22T17:45:40.270Z,29.40
2018-08-22T17:48:07.648Z,29.20
2018-08-22T17:50:35.168Z,29.10
2018-08-22T17:53:05.168Z,29.00
2018-08-22T17:55:32.912Z,28.90
2018-08-22T17:58:00.386Z,28.90
2018-08-22T18:00:29.624Z,28.80
2018-08-22T18:02:57.760Z,28.70
2018-08-22T18:05:25.209Z,28.70
2018-08-22T18:07:52.600Z,28.50
2018-08-22T18:10:20.013Z,28.40
2018-08-22T18:12:47.419Z,28.40
2018-08-22T18:15:14.839Z,28.30
2018-08-22T18:17:42.736Z,28.20
2018-08-22T18:20:10.179Z,28.20
2018-08-22T18:22:39.148Z,28.10
2018-08-22T18:25:06.806Z,28.10
2018-08-22T18:27:34.295Z,28.00
2018-08-22T18:30:01.806Z,28.00
2018-08-22T18:32:29.208Z,27.90
2018-08-22T18:35:13.231Z,27.80
2018-08-22T18:37:42.793Z,27.70
2018-08-22T18:40:16.692Z,27.70
2018-08-22T18:42:47.027Z,27.60
2018-08-22T18:45:14.421Z,27.50
2018-08-22T18:47:41.858Z,27.50
2018-08-22T18:50:09.296Z,27.40
2018-08-22T18:52:36.669Z,27.40
2018-08-22T18:55:04.159Z,27.30
2018-08-22T18:57:31.586Z,27.20
2018-08-22T19:00:01.764Z,27.10
2018-08-22T19:02:29.220Z,27.00
2018-08-22T19:05:01.565Z,27.00
2018-08-22T19:07:29.116Z,26.90
2018-08-22T19:09:59.679Z,26.80
2018-08-22T19:12:27.119Z,26.80
2018-08-22T19:14:54.548Z,26.70
2018-08-22T19:17:21.935Z,26.60
2018-08-22T19:19:49.350Z,26.60
2018-08-22T19:22:21.559Z,26.50
2018-08-22T19:25:05.373Z,26.50
2018-08-22T19:27:33.664Z,26.40
2018-08-22T19:30:04.967Z,26.40
2018-08-22T19:32:32.331Z,26.20
2018-08-22T19:34:59.783Z,26.20
2018-08-22T19:37:27.249Z,26.10
2018-08-22T19:40:05.020Z,26.00
2018-08-22T19:42:34.160Z,26.00
2018-08-22T19:45:02.857Z,26.00
2018-08-22T19:47:30.282Z,25.80
2018-08-22T19:50:02.332Z,25.80
2018-08-22T19:52:30.707Z,25.80
2018-08-22T19:54:58.170Z,25.80
2018-08-22T19:57:33.231Z,25.80
2018-08-22T20:00:05.952Z,25.70
2018-08-22T20:02:34.198Z,25.70
2018-08-22T20:05:01.572Z,25.70
2018-08-22T20:07:29.043Z,25.60
2018-08-22T20:09:56.455Z,25.50
2018-08-22T20:12:35.423Z,25.50
2018-08-22T20:15:03.015Z,25.50
2018-08-22T20:17:31.009Z,25.40
2018-08-22T20:19:58.452Z,25.30
2018-08-22T20:22:35.359Z,25.20
2018-08-22T20:25:02.972Z,25.20
2018-08-22T20:27:30.462Z,25.10
2018-08-22T20:30:02.633Z,25.00
2018-08-22T20:32:31.921Z,25.00
2018-08-22T20:35:00.436Z,24.90
2018-08-22T20:37:27.931Z,24.90
2018-08-22T20:40:01.574Z,24.90
2018-08-22T20:42:28.931Z,24.90
2018-08-22T20:44:59.348Z,24.80
2018-08-22T20:47:27.067Z,24.80
2018-08-22T20:49:54.935Z,24.70
2018-08-22T20:52:22.390Z,24.70
2018-08-22T20:54:55.312Z,24.60
2018-08-22T20:57:27.158Z,24.60
2018-08-22T20:59:54.576Z,24.50
2018-08-22T21:02:22.016Z,24.40
2018-08-22T21:04:49.478Z,24.40
2018-08-22T21:07:21.177Z,24.30
2018-08-22T21:09:48.569Z,24.30
2018-08-22T21:12:17.572Z,24.20
2018-08-22T21:14:45.057Z,24.20
2018-08-22T21:17:12.348Z,24.20
2018-08-22T21:19:39.765Z,24.20
2018-08-22T21:22:42.376Z,24.20
2018-08-22T21:25:10.603Z,24.20
2018-08-22T21:27:38.032Z,24.10
2018-08-22T21:30:05.497Z,24.10
2018-08-22T21:32:32.951Z,24.10
2018-08-22T21:35:03.853Z,24.10
2018-08-22T21:37:31.306Z,24.00
2018-08-22T21:39:58.714Z,24.00
2018-08-22T21:42:33.279Z,24.00
2018-08-22T21:45:01.128Z,24.00
2018-08-22T21:47:32.341Z,23.90
2018-08-22T21:49:59.832Z,23.90
2018-08-22T21:52:47.232Z,23.80
2018-08-22T21:55:14.757Z,23.70
2018-08-22T21:57:42.159Z,23.70
2018-08-22T22:00:09.940Z,23.70
2018-08-22T22:02:42.547Z,23.60
2018-08-22T22:05:10.851Z,23.60
2018-08-22T22:07:38.523Z,23.60
2018-08-22T22:10:09.838Z,23.60
2018-08-22T22:12:37.843Z,23.50
2018-08-22T22:15:05.587Z,23.40
2018-08-22T22:17:33.000Z,23.40
2018-08-22T22:20:00.842Z,23.40
2018-08-22T22:22:28.244Z,23.40
2018-08-22T22:25:01.887Z,23.30
2018-08-22T22:27:29.778Z,23.30
2018-08-22T22:29:59.903Z,23.30
2018-08-22T22:32:27.365Z,23.30
2018-08-22T22:34:54.744Z,23.40
2018-08-22T22:37:22.126Z,23.20
2018-08-22T22:39:51.036Z,23.20
2018-08-22T22:42:25.052Z,23.10
2018-08-22T22:44:53.437Z,23.10
2018-08-22T22:47:26.559Z,23.10
2018-08-22T22:49:54.351Z,23.00
2018-08-22T22:52:26.666Z,23.00
2018-08-22T22:54:56.252Z,23.00
2018-08-22T22:57:24.940Z,22.90
2018-08-22T22:59:52.965Z,22.90
2018-08-22T23:02:23.604Z,22.90
2018-08-22T23:04:52.691Z,22.90
2018-08-22T23:07:29.579Z,22.80
2018-08-22T23:09:59.050Z,22.80
2018-08-22T23:12:46.657Z,22.80
2018-08-22T23:15:22.846Z,22.80
2018-08-22T23:17:52.803Z,22.80
2018-08-22T23:20:29.857Z,22.70
2018-08-22T23:22:57.267Z,22.80
2018-08-22T23:25:25.081Z,22.70
2018-08-22T23:27:52.488Z,22.80
2018-08-22T23:30:22.103Z,22.80
2018-08-22T23:32:49.571Z,22.80
2018-08-22T23:35:26.332Z,22.80
2018-08-22T23:37:54.727Z,22.80
2018-08-22T23:40:24.146Z,22.80
2018-08-22T23:42:51.943Z,22.80
2018-08-22T23:45:19.386Z,22.80
2018-08-22T23:47:46.808Z,22.80
2018-08-22T23:50:14.271Z,22.90
2018-08-22T23:52:47.662Z,22.80
2018-08-22T23:55:15.091Z,22.80
2018-08-22T23:57:42.475Z,22.80
